Time;durP1;ratioP1;P1;durP2;ratioP2;P2;SDS_P1;SDS_P2;PMS_P1;PMS_P2;Temp;Humidity;BMP_temperature;BMP_pressure;BME280_temperature;BME280_humidity;BME280_pressure;Samples;Min_cycle;Max_cycle;Signal;HPM_P1;HPM_P2
2021/07/04 00:07:20;;;;;;;1999.90;999.90;;;;;;;19.21;74.06;100826.06;15741917;28;20532;-68
2021/07/04 00:14:52;;;;;;;1999.90;999.90;;;;;;;19.11;74.05;100819.09;15741324;28;20109;-68
2021/07/04 00:22:26;;;;;;;1999.90;999.90;;;;;;;19.29;73.49;100814.44;15741846;28;20047;-68
2021/07/04 00:29:58;;;;;;;1999.90;999.90;;;;;;;19.16;72.95;100824.41;15740966;28;20048;-68
2021/07/04 00:37:32;;;;;;;1999.90;999.90;;;;;;;19.19;71.86;100811.50;15741027;28;20635;-68
2021/07/04 00:45:10;;;;;;;1999.90;999.90;;;;;;;19.30;72.21;100812.44;15740658;28;20127;-68
2021/07/04 00:52:46;;;;;;;1999.90;999.90;;;;;;;19.37;73.18;100812.47;15723749;28;20051;-68
2021/07/04 01:00:22;;;;;;;1999.90;999.90;;;;;;;19.35;74.58;100814.06;15739810;28;20040;-68
2021/07/04 01:08:01;;;;;;;1999.90;999.90;;;;;;;19.27;74.53;100799.84;15741791;28;20090;-68
2021/07/04 01:15:36;;;;;;;1999.90;999.90;;;;;;;19.37;74.41;100801.16;15753819;28;20040;-68
2021/07/04 01:23:17;;;;;;;1999.90;999.90;;;;;;;19.32;74.55;100796.69;15753222;28;20047;-66
2021/07/04 01:30:56;;;;;;;1999.90;999.90;;;;;;;19.40;74.08;100791.91;15768380;28;20049;-68
2021/07/04 01:38:32;;;;;;;1999.90;999.90;;;;;;;19.31;74.25;100778.09;15750723;28;20098;-68
2021/07/04 01:46:08;;;;;;;1999.90;999.90;;;;;;;19.24;74.53;100788.50;15750478;28;20051;-68
2021/07/04 01:53:45;;;;;;;1999.90;999.90;;;;;;;19.22;74.46;100780.41;15749622;28;20677;-67
2021/07/04 02:01:28;;;;;;;1999.90;999.90;;;;;;;19.25;74.49;100782.47;15749040;28;20098;-68
2021/07/04 02:09:03;;;;;;;1999.90;999.90;;;;;;;19.32;74.90;100790.22;15748499;28;20045;-68
2021/07/04 02:16:37;;;;;;;1999.90;999.90;;;;;;;19.26;75.32;100786.09;15747611;28;20305;-68
2021/07/04 02:24:31;;;;;;;1999.90;999.90;;;;;;;19.27;76.38;100784.91;15746344;28;20501;-68
2021/07/04 02:32:03;;;;;;;1999.90;999.90;;;;;;;19.10;76.84;100786.38;15748048;28;20083;-68
2021/07/04 02:39:38;;;;;;;1999.90;999.90;;;;;;;19.06;76.68;100798.84;15747507;28;20037;-68
2021/07/04 02:47:13;;;;;;;1999.90;999.90;;;;;;;19.02;76.11;100795.97;15747404;28;20045;-68
2021/07/04 02:54:49;;;;;;;1999.90;999.90;;;;;;;18.89;76.57;100797.47;15747111;28;20529;-68
2021/07/04 03:02:31;;;;;;;1999.90;999.90;;;;;;;18.77;76.16;100806.22;15728452;28;20045;-68
2021/07/04 03:10:06;;;;;;;1999.90;999.90;;;;;;;18.65;76.15;100804.44;15744519;28;20504;-68
2021/07/04 03:17:40;;;;;;;1999.90;999.90;;;;;;;18.49;76.66;100796.19;15744258;28;20113;-68
2021/07/04 03:25:15;;;;;;;1999.90;999.90;;;;;;;18.44;77.16;100788.88;15727864;28;20562;-67
2021/07/04 03:32:49;;;;;;;1999.90;999.90;;;;;;;18.46;77.24;100799.78;15744492;28;20041;-66
2021/07/04 03:40:25;;;;;;;1999.90;999.90;;;;;;;18.35;77.31;100788.34;15742803;28;20444;-68
2021/07/04 03:48:04;;;;;;;1999.90;999.90;;;;;;;18.22;77.99;100803.06;15741506;28;20113;-68
2021/07/04 03:55:47;;;;;;;1999.90;999.90;;;;;;;18.18;77.88;100798.19;15741177;28;20052;-67
2021/07/04 04:03:20;;;;;;;1999.90;999.90;;;;;;;18.10;78.69;100795.66;15741371;28;20044;-66
2021/07/04 04:11:05;;;;;;;1999.90;999.90;;;;;;;18.16;77.75;100789.31;15742356;28;20028;-68
2021/07/04 04:18:38;;;;;;;1999.90;999.90;;;;;;;18.03;78.32;100785.09;15741354;28;20072;-68
2021/07/04 04:26:15;;;;;;;1999.90;999.90;;;;;;;18.13;78.41;100786.41;15725244;28;20044;-68
2021/07/04 04:33:47;;;;;;;1999.90;999.90;;;;;;;18.56;77.94;100792.63;15741731;23;20047;-68
2021/07/04 04:41:21;;;;;;;1999.90;999.90;;;;;;;18.77;77.59;100803.41;15797702;28;20512;-68
2021/07/04 04:48:53;;;;;;;1999.90;999.90;;;;;;;19.06;77.28;100802.47;15787476;28;20063;-68
2021/07/04 04:56:26;;;;;;;1999.90;999.90;;;;;;;19.56;75.77;100802.97;15797502;28;20399;-68
2021/07/04 05:03:59;;;;;;;1999.90;999.90;;;;;;;20.16;73.26;100799.72;15778750;28;20036;-68
2021/07/04 05:11:33;;;;;;;1999.90;999.90;;;;;;;20.60;72.66;100804.41;15796926;28;20119;-68
2021/07/04 05:19:06;;;;;;;1999.90;999.90;;;;;;;21.11;70.85;100815.47;15796771;28;20113;-68
2021/07/04 05:26:39;;;;;;;;;;;;;;;21.26;70.34;100819.19;15777323;28;20149;-68
2021/07/04 05:34:12;;;;;;;1999.90;999.90;;;;;;;21.34;70.80;100817.97;15795717;28;19939;-68
2021/07/04 05:41:45;;;;;;;1999.90;999.90;;;;;;;21.58;68.64;100820.03;15795032;28;20468;-68
2021/07/04 05:49:17;;;;;;;1999.90;999.90;;;;;;;21.77;68.27;100818.78;15794161;28;20507;-68
2021/07/04 05:56:51;;;;;;;1999.90;999.90;;;;;;;22.07;66.11;100818.34;15799201;28;20151;-69
2021/07/04 06:04:23;;;;;;;1999.90;999.90;;;;;;;22.22;60.48;100816.31;15806315;28;20408;-68
2021/07/04 06:11:57;;;;;;;1999.90;999.90;;;;;;;23.01;61.64;100811.91;15788049;28;20122;-68
2021/07/04 06:19:29;;;;;;;1999.90;999.90;;;;;;;24.04;58.91;100818.00;15787820;28;20048;-69
2021/07/04 06:27:03;;;;;;;1999.90;999.90;;;;;;;24.78;58.64;100810.63;15805232;28;20448;-69
2021/07/04 06:34:35;;;;;;;1999.90;999.90;;;;;;;25.20;53.94;100819.84;15804398;28;20040;-69
2021/07/04 06:42:09;;;;;;;1999.90;999.90;;;;;;;25.76;53.16;100814.47;15803236;28;20508;-69
2021/07/04 06:49:42;;;;;;;1999.90;999.90;;;;;;;26.16;48.99;100812.50;15784924;28;20101;-69
2021/07/04 06:57:27;;;;;;;;;;;;;;;26.74;48.95;100801.50;15803153;28;20044;-69
2021/07/04 07:04:59;;;;;;;1999.90;999.90;;;;;;;26.60;48.53;100807.56;15784110;28;19966;-69
2021/07/04 07:12:33;;;;;;;1999.90;999.90;;;;;;;27.15;42.70;100803.88;15775533;28;20044;-69
2021/07/04 07:20:07;;;;;;;1999.90;999.90;;;;;;;27.33;42.11;100794.88;15800660;28;20401;-70
2021/07/04 07:27:40;;;;;;;1999.90;999.90;;;;;;;27.84;43.31;100795.22;15765426;28;20066;-70
2021/07/04 07:35:13;;;;;;;1999.90;999.90;;;;;;;27.80;38.84;100792.44;15765562;28;20068;-67
2021/07/04 07:42:49;;;;;;;1999.90;999.90;;;;;;;28.79;40.32;100790.06;15780764;28;20135;-67
2021/07/04 07:50:22;;;;;;;1999.90;999.90;;;;;;;28.86;40.01;100787.78;15800272;28;20044;-68
2021/07/04 07:57:55;;;;;;;1999.90;999.90;;;;;;;28.71;38.54;100780.88;15800060;28;20473;-69
2021/07/04 08:05:27;;;;;;;1999.90;999.90;;;;;;;28.66;40.70;100773.66;15781507;28;20075;-66
2021/07/04 08:13:01;;;;;;;1999.90;999.90;;;;;;;29.31;42.90;100769.56;15798431;28;20480;-67
2021/07/04 08:20:33;;;;;;;1999.90;999.90;;;;;;;30.13;38.75;100750.28;15794270;28;20047;-70
2021/07/04 08:28:06;;;;;;;1999.90;999.90;;;;;;;30.11;38.69;100754.88;15739545;28;20429;-71
2021/07/04 08:35:39;;;;;;;1999.90;999.90;;;;;;;30.47;38.34;100745.72;15778486;28;20048;-69
2021/07/04 08:43:25;;;;;;;1999.90;999.90;;;;;;;30.47;34.58;100742.84;15779045;28;20040;-70
2021/07/04 08:50:57;;;;;;;1999.90;999.90;;;;;;;30.48;37.08;100735.81;15748705;28;20072;-69
2021/07/04 08:58:31;;;;;;;1999.90;999.90;;;;;;;31.09;32.55;100722.69;15746799;28;20151;-71
2021/07/04 09:06:03;;;;;;;1999.90;999.90;;;;;;;31.65;33.74;100726.50;15772358;28;20070;-71
2021/07/04 09:13:37;;;;;;;1999.90;999.90;;;;;;;31.95;33.74;100721.91;15791815;28;20040;-71
2021/07/04 09:21:18;;;;;;;1999.90;999.90;;;;;;;31.78;35.12;100713.56;15791873;28;20142;-72
2021/07/04 09:28:51;;;;;;;1999.90;999.90;;;;;;;32.78;30.98;100697.38;15795056;28;20040;-71
2021/07/04 09:36:28;;;;;;;1999.90;999.90;;;;;;;32.65;31.56;100706.25;15788337;28;20537;-70
2021/07/04 09:44:01;;;;;;;1999.90;999.90;;;;;;;31.76;34.24;100692.25;15806212;28;20087;-70
2021/07/04 09:51:33;;;;;;;1999.90;999.90;;;;;;;30.90;34.46;100687.25;15804110;28;20654;-67
2021/07/04 09:59:07;;;;;;;1999.90;999.90;;;;;;;32.48;34.80;100681.91;15784100;28;20139;-67
2021/07/04 10:06:47;;;;;;;1999.90;999.90;;;;;;;30.16;37.50;100682.34;15802449;28;20048;-65
2021/07/04 10:14:21;;;;;;;1999.90;999.90;;;;;;;30.65;37.91;100673.06;15784399;28;20044;-66
2021/07/04 10:21:55;;;;;;;1999.90;999.90;;;;;;;30.44;35.33;100675.50;15785073;28;20079;-65
2021/07/04 10:29:31;;;;;;;1999.90;999.90;;;;;;;31.70;35.30;100659.56;15777189;28;20557;-67
2021/07/04 10:37:06;;;;;;;1999.90;999.90;;;;;;;32.54;32.33;100656.88;15775922;28;21141;-67
2021/07/04 10:44:42;;;;;;;1999.90;999.90;;;;;;;31.33;33.86;100645.09;15766233;28;20108;-68
2021/07/04 10:52:23;;;;;;;1999.90;999.90;;;;;;;29.69;34.34;100636.44;15777871;28;20036;-65
2021/07/04 11:00:22;;;;;;;;;;;;;;;30.46;35.08;100635.53;15772545;28;20073;-68
2021/07/04 11:08:10;;;;;;;1999.90;999.90;;;;;;;29.50;39.59;100636.31;15726755;28;20325;-67
2021/07/04 11:15:44;;;;;;;1999.90;999.90;;;;;;;29.10;40.21;100629.50;15791710;28;20058;-67
2021/07/04 11:23:24;;;;;;;1999.90;999.90;;;;;;;29.30;39.58;100622.19;15754782;28;20050;-66
2021/07/04 11:31:25;;;;;;;1999.90;999.90;;;;;;;31.79;36.42;100613.44;15749696;28;20089;-66
2021/07/04 11:39:01;;;;;;;1999.90;999.90;;;;;;;31.22;35.31;100599.47;15781929;28;20040;-66
2021/07/04 11:46:35;;;;;;;1999.90;999.90;;;;;;;31.58;34.77;100598.69;15769771;28;20131;-67
2021/07/04 11:54:11;;;;;;;1999.90;999.90;;;;;;;33.74;30.29;100597.00;15753516;28;20458;-67
2021/07/04 12:01:50;;;;;;;1999.90;999.90;;;;;;;32.95;32.50;100577.25;15776330;28;20044;-67
2021/07/04 12:09:37;;;;;;;1999.90;999.90;;;;;;;30.73;35.03;100571.50;15796228;28;20396;-67
2021/07/04 12:17:23;;;;;;;1999.90;999.90;;;;;;;31.03;33.04;100555.38;15771173;28;20693;-68
2021/07/04 12:24:57;;;;;;;1999.90;999.90;;;;;;;33.63;30.03;100552.63;15750530;28;20040;-66
2021/07/04 12:32:32;;;;;;;1999.90;999.90;;;;;;;34.10;29.89;100554.56;15774796;28;20051;-66
2021/07/04 12:40:10;;;;;;;1999.90;999.90;;;;;;;35.31;33.21;100541.56;15767432;28;20047;-65
2021/07/04 12:47:43;;;;;;;1999.90;999.90;;;;;;;36.91;25.61;100547.75;15750641;28;20039;-68
2021/07/04 12:55:34;;;;;;;1999.90;999.90;;;;;;;38.32;24.69;100538.03;15796374;28;20388;-67
2021/07/04 13:03:07;;;;;;;1999.90;999.90;;;;;;;40.73;21.49;100537.44;15759427;28;20082;-66
2021/07/04 13:10:41;;;;;;;1999.90;999.90;;;;;;;36.15;26.06;100522.91;15775962;28;20105;-66
2021/07/04 13:18:25;;;;;;;1999.90;999.90;;;;;;;33.42;30.54;100516.97;15748355;28;20458;-63
2021/07/04 13:25:58;;;;;;;1999.90;999.90;;;;;;;31.41;31.91;100496.50;15780194;28;20048;-66
2021/07/04 13:33:32;;;;;;;1999.90;999.90;;;;;;;32.08;33.12;100486.69;15764371;28;20075;-67
2021/07/04 13:41:05;;;;;;;1999.90;999.90;;;;;;;31.69;34.29;100490.69;15802029;28;20131;-67
2021/07/04 13:48:38;;;;;;;1999.90;999.90;;;;;;;31.37;33.06;100501.63;15797500;28;20052;-65
2021/07/04 13:56:11;;;;;;;1999.90;999.90;;;;;;;30.82;34.17;100484.31;15806163;28;20094;-65
2021/07/04 14:03:43;;;;;;;1999.90;999.90;;;;;;;31.24;34.93;100477.94;15806424;28;20113;-66
2021/07/04 14:11:17;;;;;;;1999.90;999.90;;;;;;;30.73;35.99;100476.47;15788029;28;20044;-66
2021/07/04 14:18:49;;;;;;;1999.90;999.90;;;;;;;30.29;35.93;100470.13;15771001;28;20139;-64
2021/07/04 14:26:23;;;;;;;1999.90;999.90;;;;;;;30.13;34.88;100459.69;15804521;28;20052;-64
2021/07/04 14:33:55;;;;;;;1999.90;999.90;;;;;;;29.94;34.50;100458.00;15768089;28;20142;-65
2021/07/04 14:41:28;;;;;;;1999.90;999.90;;;;;;;30.27;36.65;100446.78;15804104;28;20044;-65
2021/07/04 14:49:01;;;;;;;1999.90;999.90;;;;;;;30.14;35.22;100438.28;15757503;28;20052;-65
2021/07/04 14:56:36;;;;;;;1999.90;999.90;;;;;;;30.78;37.33;100436.81;15802226;28;20108;-65
2021/07/04 15:04:09;;;;;;;1999.90;999.90;;;;;;;30.13;35.46;100435.88;15783700;28;20044;-64
2021/07/04 15:11:46;;;;;;;1999.90;999.90;;;;;;;29.77;36.31;100437.28;15801231;28;20123;-66
2021/07/04 15:19:18;;;;;;;1999.90;999.90;;;;;;;29.69;36.11;100432.31;15803024;28;20068;-65
2021/07/04 15:26:52;;;;;;;1999.90;999.90;;;;;;;29.65;37.83;100415.19;15799921;28;20421;-66
2021/07/04 15:34:25;;;;;;;1999.90;999.90;;;;;;;29.30;37.96;100414.53;15800288;28;20036;-65
2021/07/04 15:41:58;;;;;;;1999.90;999.90;;;;;;;29.22;37.69;100407.44;15781736;28;20425;-64
2021/07/04 15:49:30;;;;;;;1999.90;999.90;;;;;;;28.96;37.66;100392.41;15723831;28;20077;-63
2021/07/04 15:57:12;;;;;;;1999.90;999.90;;;;;;;28.94;37.22;100383.47;15800081;28;20052;-63
2021/07/04 16:04:45;;;;;;;1999.90;999.90;;;;;;;28.94;37.08;100371.97;15798830;28;20291;-65
2021/07/04 16:12:18;;;;;;;1999.90;999.90;;;;;;;28.84;37.61;100367.41;15723086;28;20049;-63
2021/07/04 16:19:51;;;;;;;1999.90;999.90;;;;;;;28.94;37.81;100346.94;15795518;28;20032;-63
2021/07/04 16:27:25;;;;;;;1999.90;999.90;;;;;;;29.06;38.55;100348.13;15791102;28;20131;-66
2021/07/04 16:34:57;;;;;;;1999.90;999.90;;;;;;;28.83;39.15;100345.72;15794159;22;20047;-66
2021/07/04 16:42:31;;;;;;;1999.90;999.90;;;;;;;28.52;40.26;100348.50;15863032;27;20067;-66
2021/07/04 16:50:03;;;;;;;1999.90;999.90;;;;;;;28.35;40.66;100339.28;15769260;28;20087;-66
2021/07/04 16:57:37;;;;;;;1999.90;999.90;;;;;;;28.04;40.12;100348.53;15746818;28;20044;-65
2021/07/04 17:05:10;;;;;;;1999.90;999.90;;;;;;;28.12;40.51;100349.06;15756737;28;20516;-62
2021/07/04 17:12:44;;;;;;;1999.90;999.90;;;;;;;28.05;41.17;100355.06;15790080;28;20051;-66
2021/07/04 17:20:18;;;;;;;1999.90;999.90;;;;;;;28.07;40.32;100353.34;15798218;28;20378;-65
2021/07/04 17:27:52;;;;;;;1999.90;999.90;;;;;;;27.94;40.45;100355.44;15779160;28;20447;-66
2021/07/04 17:35:25;;;;;;;1999.90;999.90;;;;;;;27.75;40.61;100353.63;15779887;28;20036;-65
2021/07/04 17:42:59;;;;;;;1999.90;999.90;;;;;;;27.56;40.88;100347.63;15781510;28;20040;-65
2021/07/04 17:50:31;;;;;;;1999.90;999.90;;;;;;;27.71;41.19;100361.53;15774346;28;20131;-65
2021/07/04 17:58:04;;;;;;;1999.90;999.90;;;;;;;27.47;41.81;100370.44;15801116;28;20072;-64
2021/07/04 18:05:37;;;;;;;1999.90;999.90;;;;;;;27.28;41.85;100363.66;15772856;28;20520;-66
2021/07/04 18:13:10;;;;;;;1999.90;999.90;;;;;;;27.31;41.71;100362.75;15790357;28;20043;-64
2021/07/04 18:20:43;;;;;;;1999.90;999.90;;;;;;;27.21;42.59;100360.22;15803263;28;20048;-65
2021/07/04 18:28:16;;;;;;;1999.90;999.90;;;;;;;27.07;42.77;100369.25;15743662;28;20143;-64
2021/07/04 18:35:49;;;;;;;1999.90;999.90;;;;;;;26.95;43.95;100371.59;15753723;28;20052;-64
2021/07/04 18:43:23;;;;;;;1999.90;999.90;;;;;;;26.84;45.29;100367.44;15777496;28;20040;-64
2021/07/04 18:50:56;;;;;;;1999.90;999.90;;;;;;;26.48;45.02;100371.31;15768976;28;20079;-64
2021/07/04 18:58:30;;;;;;;1999.90;999.90;;;;;;;26.45;46.27;100375.06;15761489;28;20466;-65
2021/07/04 19:06:05;;;;;;;1999.90;999.90;;;;;;;26.18;45.75;100390.47;15763247;28;20105;-65
2021/07/04 19:13:39;;;;;;;1999.90;999.90;;;;;;;25.97;46.24;100393.06;15807255;28;20523;-65
2021/07/04 19:21:11;;;;;;;1999.90;999.90;;;;;;;25.82;46.81;100399.13;15789099;28;20104;-64
2021/07/04 19:28:45;;;;;;;1999.90;999.90;;;;;;;25.69;47.08;100397.38;15806763;28;20116;-62
2021/07/04 19:36:18;;;;;;;1999.90;999.90;;;;;;;25.56;46.77;100406.66;15806599;28;20048;-62
2021/07/04 19:43:52;;;;;;;1999.90;999.90;;;;;;;25.40;47.42;100406.59;15806153;28;20040;-61
2021/07/04 19:51:25;;;;;;;1999.90;999.90;;;;;;;25.24;47.48;100404.53;15787138;28;20119;-62
2021/07/04 19:58:59;;;;;;;1999.90;999.90;;;;;;;25.21;48.16;100424.56;15786619;28;20067;-63
2021/07/04 20:06:33;;;;;;;1999.90;999.90;;;;;;;24.95;49.08;100421.41;15804292;28;20051;-64
2021/07/04 20:14:08;;;;;;;1999.90;999.90;;;;;;;24.71;50.13;100420.69;15770483;28;20115;-63
2021/07/04 20:21:40;;;;;;;1999.90;999.90;;;;;;;24.60;52.26;100422.13;15805138;28;20075;-63
2021/07/04 20:29:15;;;;;;;1999.90;999.90;;;;;;;24.62;52.38;100422.50;15805095;28;20048;-63
2021/07/04 20:36:48;;;;;;;1999.90;999.90;;;;;;;24.22;51.45;100425.22;15769755;28;20374;-62
2021/07/04 20:44:22;;;;;;;1999.90;999.90;;;;;;;24.24;52.84;100411.31;15785555;28;20039;-63
2021/07/04 20:51:54;;;;;;;1999.90;999.90;;;;;;;23.99;52.22;100422.34;15804356;28;20036;-60
2021/07/04 20:59:29;;;;;;;1999.90;999.90;;;;;;;23.97;53.40;100421.97;15802731;28;20405;-61
2021/07/04 21:07:02;;;;;;;1999.90;999.90;;;;;;;23.86;53.85;100430.69;15802410;28;20054;-62
2021/07/04 21:14:36;;;;;;;1999.90;999.90;;;;;;;23.67;53.67;100435.06;15802924;28;20090;-61
2021/07/04 21:22:11;;;;;;;1999.90;999.90;;;;;;;23.48;54.51;100422.28;15802484;28;20047;-62
2021/07/04 21:29:44;;;;;;;1999.90;999.90;;;;;;;23.29;55.48;100425.78;15776674;28;20051;-62
2021/07/04 21:37:16;;;;;;;1999.90;999.90;;;;;;;23.31;55.83;100431.88;15813898;28;20040;-63
2021/07/04 21:44:50;;;;;;;1999.90;999.90;;;;;;;23.33;54.76;100440.78;15754936;28;20464;-63
2021/07/04 21:52:22;;;;;;;1999.90;999.90;;;;;;;23.42;56.38;100438.22;15787925;28;20081;-63
2021/07/04 21:59:55;;;;;;;1999.90;999.90;;;;;;;23.38;58.03;100428.13;15802664;28;20123;-63
2021/07/04 22:07:28;;;;;;;1999.90;999.90;;;;;;;22.83;58.01;100412.94;15779549;28;20385;-63
2021/07/04 22:15:02;;;;;;;1999.90;999.90;;;;;;;23.00;59.10;100420.47;15795805;28;20047;-63
2021/07/04 22:22:34;;;;;;;1999.90;999.90;;;;;;;22.81;58.95;100414.56;15802555;28;20044;-63
2021/07/04 22:30:10;;;;;;;1999.90;999.90;;;;;;;22.83;59.70;100407.25;15791638;28;20108;-61
2021/07/04 22:37:44;;;;;;;1999.90;999.90;;;;;;;22.55;60.53;100404.72;15807659;28;20048;-63
2021/07/04 22:45:19;;;;;;;1999.90;999.90;;;;;;;22.53;61.01;100412.88;15806952;28;20046;-63
2021/07/04 22:52:52;;;;;;;1999.90;999.90;;;;;;;22.37;60.48;100407.72;15786809;28;20048;-62
2021/07/04 23:00:28;;;;;;;1999.90;999.90;;;;;;;22.10;60.58;100407.59;15797516;28;20425;-62
2021/07/04 23:08:00;;;;;;;1999.90;999.90;;;;;;;22.25;61.96;100403.38;15806060;28;20065;-63
2021/07/04 23:15:36;;;;;;;1999.90;999.90;;;;;;;22.09;60.97;100392.59;15804494;28;20098;-63
2021/07/04 23:23:09;;;;;;;1999.90;999.90;;;;;;;22.03;60.69;100391.38;15789043;28;20447;-63
2021/07/04 23:30:43;;;;;;;1999.90;999.90;;;;;;;22.05;60.72;100379.59;15806145;28;20497;-63
2021/07/04 23:38:15;;;;;;;1999.90;999.90;;;;;;;22.08;60.15;100384.44;15786586;28;20079;-63
2021/07/04 23:45:48;;;;;;;1999.90;999.90;;;;;;;22.29;60.69;100391.97;15787977;28;20516;-62
2021/07/04 23:53:20;;;;;;;1999.90;999.90;;;;;;;22.14;61.30;100391.31;15804174;28;20046;-63
